Time;durP1;ratioP1;P1;durP2;ratioP2;P2;SDS_P1;SDS_P2;PMS_P1;PMS_P2;Temp;Humidity;BMP_temperature;BMP_pressure;BME280_temperature;BME280_humidity;BME280_pressure;Samples;Min_cycle;Max_cycle;Signal;HPM_P1;HPM_P2
2024/01/10 00:01:17;;;;;;;29.40;17.80;;;21.20;49.10;;;;;;5112053;27;20534;-74
2024/01/10 00:03:43;;;;;;;31.30;17.15;;;21.10;49.10;;;;;;5112050;28;20062;-74
2024/01/10 00:06:10;;;;;;;34.65;17.83;;;21.00;49.90;;;;;;5111961;28;20364;-74
2024/01/10 00:08:37;;;;;;;28.15;16.10;;;21.30;49.80;;;;;;5112092;28;20102;-74
2024/01/10 00:11:03;;;;;;;31.25;15.80;;;21.30;49.50;;;;;;5112311;28;20066;-76
2024/01/10 00:13:33;;;;;;;26.30;15.13;;;21.20;49.00;;;;;;5112068;28;20035;-74
2024/01/10 00:15:59;;;;;;;27.77;15.48;;;21.40;48.90;;;;;;5111913;28;20032;-75
2024/01/10 00:18:25;;;;;;;25.35;14.20;;;21.50;49.00;;;;;;5111862;28;20562;-74
2024/01/10 00:20:54;;;;;;;29.27;16.65;;;21.40;48.80;;;;;;5112458;27;20027;-73
2024/01/10 00:23:21;;;;;;;40.38;20.38;;;21.40;48.60;;;;;;5111904;28;20023;-74
2024/01/10 00:25:48;;;;;;;34.67;18.58;;;21.40;48.30;;;;;;5111669;28;20043;-74
2024/01/10 00:28:16;;;;;;;33.65;19.23;;;21.40;48.10;;;;;;5111261;28;20079;-74
2024/01/10 00:30:42;;;;;;;40.53;20.83;;;21.50;47.80;;;;;;5110387;28;20065;-75
2024/01/10 00:33:08;;;;;;;36.85;19.80;;;21.40;47.60;;;;;;5110686;28;20034;-74
2024/01/10 00:35:35;;;;;;;46.03;22.05;;;21.40;47.40;;;;;;5091465;28;20032;-74
2024/01/10 00:38:01;;;;;;;40.30;21.83;;;21.30;47.20;;;;;;5091195;28;20028;-74
2024/01/10 00:40:27;;;;;;;34.58;19.83;;;21.20;46.90;;;;;;5091164;28;20109;-73
2024/01/10 00:42:53;;;;;;;34.08;18.83;;;21.30;46.60;;;;;;5091094;28;20084;-74
2024/01/10 00:45:19;;;;;;;32.97;19.52;;;21.20;46.80;;;;;;5090989;28;20123;-74
2024/01/10 00:47:45;;;;;;;34.58;19.02;;;21.30;46.70;;;;;;5090121;28;20480;-74
2024/01/10 00:50:11;;;;;;;35.25;18.50;;;21.20;46.50;;;;;;5091389;28;20116;-74
2024/01/10 00:52:37;;;;;;;31.40;18.05;;;21.10;44.80;;;;;;5091057;28;20032;-73
2024/01/10 00:55:04;;;;;;;27.80;16.50;;;20.90;46.40;;;;;;5089745;28;20111;-74
2024/01/10 00:57:30;;;;;;;28.02;17.45;;;21.10;46.80;;;;;;5089538;28;20024;-74
2024/01/10 00:59:56;;;;;;;28.45;16.33;;;20.90;46.40;;;;;;5091345;28;20106;-74
2024/01/10 01:02:22;;;;;;;32.20;17.52;;;21.00;46.30;;;;;;5091107;28;20055;-73
2024/01/10 01:04:48;;;;;;;27.73;16.70;;;20.90;45.50;;;;;;5091232;28;20081;-74
2024/01/10 01:07:14;;;;;;;31.67;15.93;;;20.70;46.30;;;;;;5090954;28;20039;-74
2024/01/10 01:09:40;;;;;;;30.67;16.40;;;20.90;46.10;;;;;;5089677;28;20024;-74
2024/01/10 01:12:06;;;;;;;30.52;17.05;;;20.90;45.80;;;;;;5091073;28;20142;-74
2024/01/10 01:14:33;;;;;;;31.88;16.63;;;21.00;45.70;;;;;;5090946;28;20032;-75
2024/01/10 01:16:59;;;;;;;32.17;17.77;;;21.10;45.40;;;;;;5090973;28;20064;-74
2024/01/10 01:19:25;;;;;;;37.88;18.83;;;20.90;45.20;;;;;;5091165;28;20063;-74
2024/01/10 01:21:51;;;;;;;33.58;17.73;;;21.00;45.00;;;;;;5091044;28;20031;-74
2024/01/10 01:24:17;;;;;;;32.83;18.48;;;21.00;44.70;;;;;;5090907;28;20043;-74
2024/01/10 01:26:43;;;;;;;29.42;17.95;;;21.10;44.70;;;;;;5090772;28;20059;-74
2024/01/10 01:29:09;;;;;;;39.85;18.92;;;20.70;44.00;;;;;;5089845;28;20032;-74
2024/01/10 01:31:37;;;;;;;35.17;20.30;;;20.80;43.90;;;;;;5090986;28;20024;-74
2024/01/10 01:34:03;;;;;;;33.20;19.88;;;20.60;43.70;;;;;;5090980;28;20360;-74
2024/01/10 01:36:29;;;;;;;37.15;19.40;;;20.80;44.70;;;;;;5090434;28;20082;-74
2024/01/10 01:38:55;;;;;;;33.47;18.70;;;20.90;43.50;;;;;;5093353;28;20107;-75
2024/01/10 01:41:21;;;;;;;32.33;17.75;;;21.20;44.60;;;;;;5090442;28;20097;-74
2024/01/10 01:43:47;;;;;;;26.38;16.77;;;20.70;44.20;;;;;;5089468;28;20040;-74
2024/01/10 01:46:14;;;;;;;30.83;16.15;;;20.70;44.10;;;;;;5090263;28;20032;-74
2024/01/10 01:48:41;;;;;;;32.15;17.98;;;20.80;44.00;;;;;;5090353;28;20036;-74
2024/01/10 01:51:08;;;;;;;36.30;20.20;;;20.60;43.90;;;;;;5090555;28;20024;-74
2024/01/10 01:53:36;;;;;;;31.27;18.83;;;20.50;43.60;;;;;;5090533;28;20040;-74
2024/01/10 01:56:06;;;;;;;32.92;19.35;;;20.60;44.00;;;;;;5090093;28;20529;-74
2024/01/10 01:58:34;;;;;;;31.40;19.23;;;20.60;44.10;;;;;;5090424;28;20054;-74
2024/01/10 02:01:03;;;;;;;36.25;20.25;;;20.60;44.00;;;;;;5094327;28;20054;-74
2024/01/10 02:03:31;;;;;;;37.92;21.00;;;20.70;43.90;;;;;;5094132;28;20068;-74
2024/01/10 02:05:57;;;;;;;33.15;20.23;;;20.70;43.60;;;;;;5093596;28;20464;-75
2024/01/10 02:08:24;;;;;;;33.88;20.00;;;20.70;43.40;;;;;;5093975;28;20032;-74
2024/01/10 02:10:50;;;;;;;27.70;17.45;;;20.90;43.40;;;;;;5093828;28;20051;-74
2024/01/10 02:13:17;;;;;;;36.05;19.08;;;20.80;43.10;;;;;;5074857;28;20408;-73
2024/01/10 02:15:44;;;;;;;35.17;19.58;;;21.00;43.10;;;;;;5093725;28;20048;-73
2024/01/10 02:18:14;;;;;;;33.67;19.05;;;20.90;43.00;;;;;;5093548;28;20067;-74
2024/01/10 02:20:43;;;;;;;32.67;18.92;;;21.00;42.90;;;;;;5092392;28;20082;-74
2024/01/10 02:23:09;;;;;;;39.88;20.88;;;20.90;42.80;;;;;;5112500;28;20043;-73
2024/01/10 02:25:35;;;;;;;35.20;19.33;;;20.90;42.60;;;;;;5114215;28;20684;-74
2024/01/10 02:28:01;;;;;;;36.58;20.00;;;21.00;42.50;;;;;;5113717;28;20437;-74
2024/01/10 02:30:28;;;;;;;37.63;20.52;;;20.90;42.50;;;;;;5114175;28;20451;-74
2024/01/10 02:32:54;;;;;;;32.25;19.83;;;20.80;42.40;;;;;;5113933;28;20039;-74
2024/01/10 02:35:20;;;;;;;36.03;20.63;;;20.60;40.80;;;;;;5114069;28;20043;-74
2024/01/10 02:37:46;;;;;;;36.20;20.75;;;20.60;41.60;;;;;;5113909;28;20043;-74
2024/01/10 02:40:12;;;;;;;34.45;21.02;;;20.60;42.00;;;;;;5112372;28;20118;-74
2024/01/10 02:42:39;;;;;;;34.03;20.73;;;20.60;42.50;;;;;;5113974;28;20039;-73
2024/01/10 02:45:06;;;;;;;40.13;21.25;;;20.70;42.40;;;;;;5113920;28;20024;-74
2024/01/10 02:47:32;;;;;;;42.85;21.88;;;20.60;42.20;;;;;;5112091;28;20081;-75
2024/01/10 02:49:58;;;;;;;38.13;22.92;;;20.50;40.60;;;;;;5112344;28;20102;-74
2024/01/10 02:52:24;;;;;;;38.83;22.25;;;20.20;41.70;;;;;;5113565;28;20040;-73
2024/01/10 02:54:50;;;;;;;41.30;21.85;;;20.40;41.90;;;;;;5112399;28;20036;-74
2024/01/10 02:57:16;;;;;;;40.25;21.17;;;19.80;41.40;;;;;;5113609;28;20070;-74
2024/01/10 02:59:42;;;;;;;33.00;21.83;;;20.40;42.70;;;;;;5113568;28;20034;-74
2024/01/10 03:02:08;;;;;;;39.35;22.67;;;20.30;41.50;;;;;;5094054;28;20130;-74
2024/01/10 03:04:34;;;;;;;35.20;20.75;;;20.40;42.50;;;;;;5094347;28;20127;-74
2024/01/10 03:07:00;;;;;;;39.00;21.13;;;20.40;42.50;;;;;;5113346;28;20023;-74
2024/01/10 03:09:27;;;;;;;39.17;21.70;;;20.50;42.00;;;;;;5113470;28;20487;-74
2024/01/10 03:11:53;;;;;;;37.58;20.85;;;20.40;42.20;;;;;;5112850;28;20042;-74
2024/01/10 03:14:19;;;;;;;30.05;18.73;;;20.50;42.20;;;;;;5113320;28;20057;-74
2024/01/10 03:16:45;;;;;;;33.58;19.30;;;20.60;40.10;;;;;;5113133;28;20485;-75
2024/01/10 03:19:11;;;;;;;38.55;18.52;;;20.30;42.00;;;;;;5113166;28;20059;-74
2024/01/10 03:21:37;;;;;;;34.25;19.08;;;20.60;41.60;;;;;;5113236;28;20034;-75
2024/01/10 03:24:04;;;;;;;34.70;18.77;;;20.60;41.30;;;;;;5113171;28;20410;-74
2024/01/10 03:26:30;;;;;;;35.30;19.55;;;20.30;41.30;;;;;;5112896;28;20031;-74
2024/01/10 03:28:57;;;;;;;36.90;19.80;;;20.40;41.20;;;;;;5113094;28;20510;-74
2024/01/10 03:31:23;;;;;;;30.52;18.77;;;20.60;41.10;;;;;;5112857;28;20031;-72
2024/01/10 03:33:50;;;;;;;34.45;21.45;;;20.40;41.00;;;;;;5112920;28;20043;-74
2024/01/10 03:36:17;;;;;;;39.13;21.00;;;20.20;39.60;;;;;;5111723;28;20038;-75
2024/01/10 03:38:44;;;;;;;42.03;22.65;;;20.80;40.40;;;;;;5108169;28;20475;-75
2024/01/10 03:41:15;;;;;;;38.22;21.10;;;20.00;40.10;;;;;;5112692;28;20509;-74
2024/01/10 03:43:41;;;;;;;40.63;22.77;;;20.00;40.20;;;;;;5112854;28;20040;-74
2024/01/10 03:46:08;;;;;;;38.38;21.73;;;20.00;40.70;;;;;;5112560;28;20035;-73
2024/01/10 03:48:35;;;;;;;44.30;21.98;;;19.80;40.70;;;;;;5112429;28;20035;-74
2024/01/10 03:51:01;;;;;;;34.80;22.08;;;20.00;41.60;;;;;;5112530;28;20464;-74
2024/01/10 03:53:27;;;;;;;33.58;20.20;;;20.10;40.10;;;;;;5112273;28;20398;-74
2024/01/10 03:55:53;;;;;;;35.35;20.63;;;20.00;40.30;;;;;;5112494;28;20031;-74
2024/01/10 03:58:20;;;;;;;35.53;20.85;;;20.00;40.50;;;;;;5112227;28;20034;-74
2024/01/10 04:00:46;;;;;;;39.65;20.73;;;20.00;40.60;;;;;;5112428;28;20055;-74
2024/01/10 04:03:12;;;;;;;33.78;20.38;;;20.00;40.40;;;;;;5112230;28;20047;-74
2024/01/10 04:05:38;;;;;;;36.58;20.42;;;20.00;40.30;;;;;;5112653;28;20100;-74
2024/01/10 04:08:05;;;;;;;38.38;19.08;;;20.00;41.10;;;;;;5112356;28;20114;-74
2024/01/10 04:10:31;;;;;;;35.13;19.35;;;20.20;39.40;;;;;;5092908;28;20448;-74
2024/01/10 04:12:57;;;;;;;37.88;20.35;;;20.30;39.30;;;;;;5110719;28;20027;-74
2024/01/10 04:15:23;;;;;;;34.38;20.23;;;20.30;40.70;;;;;;5111893;28;20122;-73
2024/01/10 04:17:50;;;;;;;34.85;20.15;;;20.20;40.20;;;;;;5111814;28;20067;-74
2024/01/10 04:20:16;;;;;;;35.58;19.00;;;19.90;39.10;;;;;;5091384;28;20039;-74
2024/01/10 04:22:42;;;;;;;31.20;18.38;;;20.00;39.40;;;;;;5108971;28;20057;-74
2024/01/10 04:25:08;;;;;;;32.30;18.90;;;19.90;39.50;;;;;;5109056;28;20048;-74
2024/01/10 04:27:35;;;;;;;34.67;20.63;;;20.40;40.80;;;;;;5108829;28;20031;-74
2024/01/10 04:30:01;;;;;;;34.85;20.80;;;19.90;39.30;;;;;;5109335;28;20044;-74
2024/01/10 04:32:27;;;;;;;33.30;21.30;;;19.90;39.50;;;;;;5109157;28;20066;-74
2024/01/10 04:34:53;;;;;;;35.25;22.08;;;20.20;40.60;;;;;;5109008;28;20090;-74
2024/01/10 04:37:19;;;;;;;41.45;22.35;;;19.70;39.60;;;;;;5108772;28;20043;-74
2024/01/10 04:39:45;;;;;;;38.58;21.33;;;19.60;40.80;;;;;;5096153;28;20059;-74
2024/01/10 04:42:12;;;;;;;35.25;20.50;;;19.70;40.10;;;;;;5071803;28;20143;-74
2024/01/10 04:44:38;;;;;;;38.47;20.10;;;19.80;39.50;;;;;;5071673;28;20061;-73
2024/01/10 04:47:05;;;;;;;39.35;20.90;;;19.70;40.80;;;;;;5088293;28;20403;-74
2024/01/10 04:49:31;;;;;;;40.53;21.10;;;19.80;40.30;;;;;;5071646;28;20521;-74
2024/01/10 04:51:57;;;;;;;35.35;21.23;;;20.00;40.40;;;;;;5090479;28;20058;-74
2024/01/10 04:54:23;;;;;;;37.70;21.92;;;19.80;40.40;;;;;;5089834;28;20058;-74
2024/01/10 04:56:49;;;;;;;42.42;22.75;;;19.80;39.10;;;;;;5090952;28;20028;-74
2024/01/10 04:59:15;;;;;;;39.28;22.52;;;19.70;39.40;;;;;;5090790;28;20031;-74
2024/01/10 05:01:41;;;;;;;36.75;21.35;;;19.80;39.20;;;;;;5090880;28;20092;-74
2024/01/10 05:04:07;;;;;;;35.03;22.20;;;19.80;39.30;;;;;;5090969;28;20036;-73
2024/01/10 05:06:33;;;;;;;44.13;21.73;;;19.90;39.20;;;;;;5091257;28;20035;-74
2024/01/10 05:09:00;;;;;;;35.38;20.45;;;19.90;39.30;;;;;;5090899;28;20025;-74
2024/01/10 05:11:26;;;;;;;43.80;22.83;;;20.20;39.30;;;;;;5091136;28;20040;-75
2024/01/10 05:13:52;;;;;;;39.50;24.13;;;20.10;39.60;;;;;;5091063;28;20042;-74
2024/01/10 05:16:18;;;;;;;40.38;22.60;;;20.00;39.70;;;;;;5090967;28;20488;-74
2024/01/10 05:18:44;;;;;;;35.85;21.65;;;20.10;37.90;;;;;;5090874;28;20028;-74
2024/01/10 05:21:10;;;;;;;41.83;24.42;;;20.00;38.30;;;;;;5091129;28;20042;-74
2024/01/10 05:23:38;;;;;;;43.13;21.90;;;19.80;39.90;;;;;;5090958;28;20046;-74
2024/01/10 05:26:04;;;;;;;41.15;22.42;;;19.90;39.50;;;;;;5090941;28;20036;-74
2024/01/10 05:28:31;;;;;;;38.58;20.95;;;19.80;38.10;;;;;;5090807;28;20086;-74
2024/01/10 05:31:01;;;;;;;34.55;21.60;;;19.70;39.80;;;;;;5090454;28;20051;-74
2024/01/10 05:33:28;;;;;;;40.35;22.25;;;19.80;38.00;;;;;;5093137;28;20040;-74
2024/01/10 05:35:54;;;;;;;43.70;23.27;;;19.60;38.20;;;;;;5093359;28;20446;-74
2024/01/10 05:38:20;;;;;;;37.28;21.98;;;19.70;38.20;;;;;;5094378;28;20121;-74
2024/01/10 05:40:46;;;;;;;35.25;21.92;;;19.50;38.40;;;;;;5075447;28;20048;-74
2024/01/10 05:43:13;;;;;;;38.35;23.77;;;19.80;40.10;;;;;;5094179;28;20122;-75
2024/01/10 05:45:39;;;;;;;43.10;22.80;;;19.70;40.00;;;;;;5094577;28;20123;-72
2024/01/10 05:48:06;;;;;;;38.55;22.17;;;19.60;38.70;;;;;;5094309;28;20036;-74
2024/01/10 05:50:32;;;;;;;48.17;24.42;;;19.70;39.80;;;;;;5094568;28;20035;-74
2024/01/10 05:52:58;;;;;;;39.58;23.48;;;20.00;39.30;;;;;;5094316;28;20131;-74
2024/01/10 05:55:24;;;;;;;44.28;23.83;;;20.00;39.10;;;;;;5094393;28;20043;-74
2024/01/10 05:57:50;;;;;;;39.95;23.20;;;20.10;37.40;;;;;;5094070;28;20036;-74
2024/01/10 06:00:17;;;;;;;47.38;25.77;;;19.90;37.80;;;;;;5093196;28;20032;-74
2024/01/10 06:02:43;;;;;;;45.88;24.38;;;20.00;39.70;;;;;;5094190;28;20471;-73
2024/01/10 06:05:10;;;;;;;39.95;23.52;;;19.90;37.90;;;;;;5094225;28;20024;-73
2024/01/10 06:07:37;;;;;;;42.25;23.92;;;19.80;37.90;;;;;;5093920;28;20059;-74
2024/01/10 06:10:04;;;;;;;43.33;23.80;;;19.70;38.10;;;;;;5093992;28;20038;-74
2024/01/10 06:12:30;;;;;;;43.35;24.08;;;19.70;38.50;;;;;;5093978;28;20065;-76
2024/01/10 06:14:57;;;;;;;43.00;22.73;;;19.80;39.10;;;;;;5100957;28;20035;-74
2024/01/10 06:17:23;;;;;;;17.90;12.27;;;19.50;40.40;;;;;;5067754;28;20052;-75
2024/01/10 06:19:50;;;;;;;16.45;8.65;;;20.00;44.70;;;;;;5102964;28;20093;-76
2024/01/10 06:22:17;;;;;;;16.45;9.70;;;20.40;41.80;;;;;;5104530;28;20027;-77
2024/01/10 06:24:44;;;;;;;13.18;8.48;;;20.40;42.00;;;;;;5105209;28;20502;-76
2024/01/10 06:27:10;;;;;;;14.82;9.52;;;20.60;41.20;;;;;;5084213;28;20035;-74
2024/01/10 06:29:37;;;;;;;17.35;14.05;;;20.70;42.20;;;;;;5103320;28;20019;-77
2024/01/10 06:32:06;;;;;;;17.73;14.20;;;20.80;40.80;;;;;;5102671;28;20107;-73
2024/01/10 06:34:33;;;;;;;16.05;12.82;;;20.90;40.20;;;;;;5103361;28;20035;-73
2024/01/10 06:37:00;;;;;;;18.27;13.85;;;20.80;38.50;;;;;;5104113;28;20039;-75
2024/01/10 06:39:27;;;;;;;19.60;10.43;;;20.90;38.20;;;;;;5104082;28;20035;-74
2024/01/10 06:41:53;;;;;;;15.82;9.18;;;21.10;42.20;;;;;;5104205;28;20035;-75
2024/01/10 06:44:19;;;;;;;17.70;10.07;;;21.50;44.10;;;;;;5103670;28;20038;-74
2024/01/10 06:46:45;;;;;;;19.95;9.95;;;21.60;45.50;;;;;;5101612;28;20028;-73
2024/01/10 06:49:12;;;;;;;13.90;9.50;;;21.80;44.70;;;;;;5104334;28;20024;-74
2024/01/10 06:51:38;;;;;;;18.23;12.50;;;21.90;44.30;;;;;;5043212;28;20069;-73
2024/01/10 06:54:05;;;;;;;16.08;12.02;;;22.10;43.40;;;;;;5093898;28;20392;-74
2024/01/10 06:56:32;;;;;;;25.05;16.35;;;22.40;40.10;;;;;;5100370;28;20046;-74
2024/01/10 06:59:00;;;;;;;21.88;14.93;;;22.30;41.00;;;;;;5109522;28;20386;-75
2024/01/10 07:01:27;;;;;;;42.05;25.85;;;22.30;38.70;;;;;;5101351;28;20047;-79
2024/01/10 07:03:56;;;;;;;43.13;26.80;;;22.20;38.80;;;;;;5103846;28;20035;-75
2024/01/10 07:06:23;;;;;;;44.88;26.15;;;22.20;37.10;;;;;;5101518;28;20028;-77
2024/01/10 07:08:50;;;;;;;45.25;27.73;;;21.90;38.00;;;;;;5101457;28;20373;-74
2024/01/10 07:11:17;;;;;;;50.42;28.17;;;21.90;38.90;;;;;;5104024;28;20046;-77
2024/01/10 07:13:43;;;;;;;45.08;28.48;;;21.70;40.20;;;;;;5101476;28;20357;-77
2024/01/10 07:16:10;;;;;;;47.78;27.88;;;21.70;40.20;;;;;;5101106;28;20429;-77
2024/01/10 07:18:36;;;;;;;41.83;25.77;;;21.60;39.90;;;;;;5102549;28;20044;-75
2024/01/10 07:21:02;;;;;;;46.05;28.08;;;21.40;40.40;;;;;;5101252;28;20042;-73
2024/01/10 07:23:28;;;;;;;44.85;25.70;;;21.40;41.20;;;;;;5101724;28;20027;-76
2024/01/10 07:25:55;;;;;;;47.28;26.95;;;21.50;41.40;;;;;;5102802;28;20028;-77
2024/01/10 07:28:22;;;;;;;46.05;27.58;;;21.40;41.10;;;;;;5082162;28;20050;-74
2024/01/10 07:30:48;;;;;;;44.05;26.40;;;21.30;41.90;;;;;;5103094;28;20521;-75
2024/01/10 07:33:14;;;;;;;46.67;26.40;;;21.20;42.10;;;;;;5102465;28;20032;-75
2024/01/10 07:35:40;;;;;;;47.65;26.15;;;21.20;42.70;;;;;;5101154;27;20027;-76
2024/01/10 07:38:09;;;;;;;46.13;26.98;;;21.20;43.10;;;;;;5103437;28;20065;-76
2024/01/10 07:40:35;;;;;;;44.75;26.73;;;21.20;42.20;;;;;;5110116;28;20036;-77
2024/01/10 07:43:01;;;;;;;41.50;25.98;;;20.90;42.70;;;;;;5112621;28;20062;-78
2024/01/10 07:45:28;;;;;;;40.88;25.45;;;20.80;47.40;;;;;;5104524;28;20454;-75
2024/01/10 07:47:54;;;;;;;43.03;26.35;;;20.80;46.20;;;;;;5112385;28;20039;-82
2024/01/10 07:50:23;;;;;;;46.15;27.23;;;21.50;46.30;;;;;;5104941;28;20032;-80
2024/01/10 07:52:49;;;;;;;46.25;25.45;;;20.80;46.10;;;;;;5100275;28;20115;-79
2024/01/10 07:55:16;;;;;;;40.38;26.42;;;20.70;45.70;;;;;;5098405;28;20055;-81
2024/01/10 07:57:45;;;;;;;44.40;29.02;;;20.80;47.00;;;;;;5112134;28;20039;-74
2024/01/10 08:00:11;;;;;;;47.28;26.98;;;20.90;47.00;;;;;;5106169;28;20103;-80
2024/01/10 08:02:38;;;;;;;42.80;26.63;;;20.80;46.30;;;;;;5093232;28;20476;-79
2024/01/10 08:05:05;;;;;;;45.67;26.80;;;21.00;46.70;;;;;;5090569;28;20028;-80
2024/01/10 08:07:36;;;;;;;44.70;26.80;;;20.90;46.70;;;;;;5090135;28;20534;-80
2024/01/10 08:10:09;;;;;;;45.75;26.88;;;21.10;46.50;;;;;;5092653;28;20086;-81
2024/01/10 08:12:35;;;;;;;43.58;26.77;;;21.20;46.30;;;;;;5106106;28;20172;-78
2024/01/10 08:15:01;;;;;;;52.80;27.98;;;21.20;46.60;;;;;;5096243;28;20036;-80
2024/01/10 08:17:27;;;;;;;47.47;26.92;;;21.30;46.70;;;;;;5091837;28;20137;-78
2024/01/10 08:19:54;;;;;;;42.90;26.77;;;21.20;46.40;;;;;;5091659;28;20027;-83
2024/01/10 08:22:20;;;;;;;47.53;28.38;;;21.20;45.20;;;;;;5091947;28;20031;-82
2024/01/10 08:24:46;;;;;;;48.33;29.83;;;21.10;46.40;;;;;;5083645;28;20039;-81
2024/01/10 08:27:13;;;;;;;51.22;29.52;;;20.90;47.40;;;;;;5111935;28;20032;-81
2024/01/10 08:29:39;;;;;;;48.70;29.92;;;21.10;47.40;;;;;;5103046;28;20062;-80
2024/01/10 08:32:05;;;;;;;51.00;28.35;;;21.00;46.40;;;;;;5111732;28;20443;-82
2024/01/10 08:34:31;;;;;;;55.15;30.13;;;20.90;46.00;;;;;;5101974;28;20043;-82
2024/01/10 08:36:57;;;;;;;48.65;30.90;;;20.80;46.30;;;;;;5109935;28;20131;-82
2024/01/10 08:39:25;;;;;;;51.33;30.25;;;20.70;47.30;;;;;;5111406;28;20042;-77
2024/01/10 08:41:52;;;;;;;47.92;30.13;;;20.70;47.40;;;;;;5093434;28;20024;-80
2024/01/10 08:44:18;;;;;;;59.50;32.05;;;19.70;48.30;;;;;;5109065;28;20036;-78
2024/01/10 08:46:45;;;;;;;47.88;30.02;;;20.60;47.90;;;;;;5091449;28;20050;-83
2024/01/10 08:49:11;;;;;;;47.97;29.65;;;20.60;47.70;;;;;;5090668;28;20031;-82
2024/01/10 08:51:37;;;;;;;56.05;30.23;;;20.90;48.90;;;;;;5093974;28;20100;-84
2024/01/10 08:54:04;;;;;;;52.55;30.23;;;20.80;48.20;;;;;;5091262;28;20138;-84
2024/01/10 08:56:30;;;;;;;49.58;29.88;;;20.90;47.90;;;;;;5090984;28;20040;-84
2024/01/10 08:58:56;;;;;;;46.63;28.98;;;21.00;47.90;;;;;;5090983;28;20028;-84
2024/01/10 09:01:22;;;;;;;54.00;31.80;;;20.90;46.20;;;;;;5091110;28;20020;-83
2024/01/10 09:03:48;;;;;;;45.55;27.98;;;20.90;47.30;;;;;;5091326;28;20036;-84
2024/01/10 09:06:15;;;;;;;43.30;27.65;;;20.90;48.10;;;;;;5093836;28;20059;-84
2024/01/10 09:08:41;;;;;;;41.03;29.05;;;20.80;47.00;;;;;;5104383;28;20024;-81
2024/01/10 09:11:07;;;;;;;47.30;28.33;;;20.60;47.10;;;;;;5104107;28;20352;-77
2024/01/10 09:13:34;;;;;;;49.63;29.05;;;20.90;48.10;;;;;;5106541;27;20030;-81
2024/01/10 09:16:00;;;;;;;48.35;29.52;;;21.00;48.30;;;;;;5105557;28;20118;-79
2024/01/10 09:18:27;;;;;;;49.55;29.45;;;21.00;48.10;;;;;;5105270;28;20412;-79
2024/01/10 09:20:56;;;;;;;47.47;27.55;;;21.00;48.20;;;;;;5108787;28;20115;-81
2024/01/10 09:23:22;;;;;;;40.45;27.08;;;21.10;47.90;;;;;;5106150;28;20031;-80
2024/01/10 09:25:48;;;;;;;45.67;28.08;;;21.20;47.70;;;;;;5107082;28;20024;-81
2024/01/10 09:28:15;;;;;;;45.90;27.42;;;21.20;46.40;;;;;;5104914;28;20031;-80
2024/01/10 09:30:41;;;;;;;42.38;26.63;;;21.20;47.30;;;;;;5095548;28;20456;-78
2024/01/10 09:33:07;;;;;;;41.78;25.92;;;21.00;47.30;;;;;;5094428;28;20173;-80
2024/01/10 09:35:33;;;;;;;42.50;25.10;;;21.10;48.00;;;;;;5095302;28;20426;-74
2024/01/10 09:38:00;;;;;;;39.25;23.55;;;21.20;46.70;;;;;;5104062;28;20463;-77
2024/01/10 09:40:28;;;;;;;41.22;25.38;;;21.10;48.10;;;;;;5115603;28;20093;-77
2024/01/10 09:42:55;;;;;;;36.30;22.73;;;21.20;47.90;;;;;;5115959;28;20030;-77
2024/01/10 09:45:23;;;;;;;40.70;23.77;;;21.10;47.80;;;;;;5115337;28;20043;-75
2024/01/10 09:47:53;;;;;;;37.40;22.00;;;21.10;47.60;;;;;;5115589;28;20466;-76
2024/01/10 09:50:20;;;;;;;33.17;20.40;;;21.20;47.60;;;;;;5113344;28;20039;-76
2024/01/10 09:52:52;;;;;;;37.33;21.48;;;21.20;47.70;;;;;;5114647;28;20028;-76
2024/01/10 09:55:22;;;;;;;40.20;23.27;;;21.00;47.70;;;;;;5114609;28;20040;-76
2024/01/10 09:57:49;;;;;;;33.78;22.33;;;21.70;48.70;;;;;;5114042;28;20272;-80
2024/01/10 10:00:16;;;;;;;35.03;21.83;;;21.10;47.50;;;;;;5114707;28;20032;-76
2024/01/10 10:02:45;;;;;;;35.72;21.80;;;21.00;47.70;;;;;;5103024;28;20028;-77
2024/01/10 10:05:15;;;;;;;38.67;22.33;;;19.90;47.40;;;;;;5095114;28;20035;-76
2024/01/10 10:07:51;;;;;;;38.72;21.40;;;21.00;47.90;;;;;;5094765;28;20024;-77
2024/01/10 10:10:19;;;;;;;36.40;22.65;;;21.20;48.00;;;;;;5104767;28;20031;-76
2024/01/10 10:12:47;;;;;;;31.15;21.20;;;21.20;48.00;;;;;;5112133;28;20028;-77
2024/01/10 10:15:16;;;;;;;38.85;20.52;;;21.10;47.90;;;;;;5102171;28;20035;-77
2024/01/10 10:17:47;;;;;;;34.47;20.35;;;21.70;48.10;;;;;;5102792;28;20052;-76
2024/01/10 10:20:14;;;;;;;31.95;20.05;;;21.10;47.70;;;;;;5107051;28;20484;-77
2024/01/10 10:22:57;;;;;;;36.67;21.77;;;21.10;47.60;;;;;;5094674;28;20047;-77
2024/01/10 10:25:23;;;;;;;32.90;20.47;;;21.30;47.60;;;;;;5094757;28;20039;-77
2024/01/10 10:27:52;;;;;;;32.05;19.67;;;21.40;47.40;;;;;;5094518;28;20538;-76
2024/01/10 10:30:18;;;;;;;38.88;21.63;;;21.40;47.40;;;;;;5052104;28;20547;-76
2024/01/10 10:32:45;;;;;;;33.63;20.13;;;21.40;47.30;;;;;;5070167;28;20488;-76
2024/01/10 10:35:11;;;;;;;33.72;21.25;;;21.40;48.50;;;;;;5054336;28;20060;-77
2024/01/10 10:37:37;;;;;;;33.92;22.15;;;21.60;46.80;;;;;;5071127;28;20032;-76
2024/01/10 10:40:04;;;;;;;38.50;22.20;;;21.50;48.40;;;;;;5071175;28;20097;-76
2024/01/10 10:42:31;;;;;;;37.13;22.05;;;21.50;47.00;;;;;;5071173;28;20635;-76
2024/01/10 10:45:02;;;;;;;37.95;24.20;;;21.60;47.00;;;;;;5054472;28;20037;-75
2024/01/10 10:47:34;;;;;;;35.20;24.40;;;21.60;47.00;;;;;;5071090;28;20086;-75
2024/01/10 10:50:03;;;;;;;33.53;21.02;;;21.50;47.00;;;;;;5039676;28;20039;-77
2024/01/10 10:52:31;;;;;;;32.65;21.50;;;21.60;47.00;;;;;;5052096;28;20040;-76
2024/01/10 10:54:59;;;;;;;39.78;22.55;;;22.50;47.40;;;;;;5033898;28;20504;-76
2024/01/10 10:57:28;;;;;;;35.63;22.35;;;21.60;47.20;;;;;;5050648;28;20055;-80
2024/01/10 10:59:57;;;;;;;37.70;21.90;;;21.60;47.10;;;;;;5066771;28;20047;-79
2024/01/10 11:02:23;;;;;;;35.60;21.90;;;21.60;47.30;;;;;;5070444;28;20163;-80
2024/01/10 11:04:50;;;;;;;37.10;21.88;;;21.60;47.70;;;;;;5053961;28;20440;-81
2024/01/10 11:07:16;;;;;;;34.70;20.80;;;21.70;47.30;;;;;;5077754;28;20040;-79
2024/01/10 11:09:44;;;;;;;15.35;11.15;;;21.60;48.80;;;;;;5093354;28;20064;-77
2024/01/10 11:12:55;;;;;;;27.20;13.05;;;21.60;44.70;;;;;;5092834;28;20036;-76
2024/01/10 11:15:50;;;;;;;20.92;13.82;;;22.30;47.00;;;;;;5070042;28;20071;-76
2024/01/10 11:18:48;;;;;;;18.58;14.63;;;22.60;52.50;;;;;;5035836;28;20040;-76
2024/01/10 11:21:32;;;;;;;18.60;14.15;;;22.90;48.20;;;;;;5049848;28;20068;-77
2024/01/10 11:23:59;;;;;;;21.85;14.45;;;23.00;55.20;;;;;;5048325;28;20138;-76
2024/01/10 11:26:26;;;;;;;18.23;14.27;;;23.50;57.50;;;;;;5048540;28;20049;-75
2024/01/10 11:28:52;;;;;;;19.67;13.73;;;23.50;41.00;;;;;;5049904;28;20059;-78
2024/01/10 11:31:29;;;;;;;29.92;15.57;;;23.50;40.80;;;;;;5048580;28;20246;-77
2024/01/10 11:33:58;;;;;;;23.55;14.23;;;23.40;37.00;;;;;;5044187;28;20041;-75
2024/01/10 11:36:26;;;;;;;21.20;14.57;;;23.70;44.60;;;;;;5029663;28;20072;-74
2024/01/10 11:38:56;;;;;;;27.52;15.68;;;24.00;45.80;;;;;;5029880;28;20394;-75
2024/01/10 11:41:27;;;;;;;20.83;15.88;;;24.40;47.40;;;;;;5012912;28;20077;-76
2024/01/10 11:44:17;;;;;;;22.67;15.38;;;24.70;49.20;;;;;;5029839;28;20525;-75
2024/01/10 11:46:45;;;;;;;21.70;15.10;;;24.40;47.70;;;;;;5029623;28;20429;-75
2024/01/10 11:49:15;;;;;;;20.75;15.77;;;24.60;41.10;;;;;;5041892;28;20135;-75
2024/01/10 11:51:49;;;;;;;19.88;16.83;;;24.50;42.30;;;;;;5046168;28;20124;-79
2024/01/10 11:54:43;;;;;;;40.08;27.90;;;24.50;39.10;;;;;;5064005;28;20074;-74
2024/01/10 11:57:21;;;;;;;42.45;28.00;;;24.50;46.30;;;;;;5106954;28;20067;-74
2024/01/10 11:59:51;;;;;;;40.35;27.17;;;24.60;45.20;;;;;;5112455;28;20127;-74
2024/01/10 12:02:18;;;;;;;36.40;24.77;;;24.70;45.10;;;;;;5088988;28;20040;-72
2024/01/10 12:04:45;;;;;;;50.10;32.50;;;24.80;44.90;;;;;;5083125;28;20060;-76
2024/01/10 12:07:12;;;;;;;44.58;29.52;;;24.70;43.70;;;;;;5073088;28;20044;-76
2024/01/10 12:09:39;;;;;;;46.17;30.48;;;24.70;43.90;;;;;;5068631;28;20064;-76
2024/01/10 12:12:06;;;;;;;53.45;34.05;;;24.70;46.90;;;;;;5052572;28;20058;-76
2024/01/10 12:14:33;;;;;;;50.38;32.25;;;25.10;51.10;;;;;;5084514;28;20067;-79
2024/01/10 12:17:00;;;;;;;48.65;31.70;;;26.40;62.00;;;;;;5082491;28;20147;-76
2024/01/10 12:19:27;;;;;;;44.75;31.88;;;26.30;58.60;;;;;;5078833;28;20127;-77
2024/01/10 12:21:53;;;;;;;49.60;31.55;;;26.00;48.60;;;;;;5077208;28;20057;-75
2024/01/10 12:24:20;;;;;;;41.53;27.80;;;25.80;45.70;;;;;;5071387;28;20602;-77
2024/01/10 12:26:49;;;;;;;34.47;24.10;;;25.40;45.10;;;;;;5051976;28;20531;-82
2024/01/10 12:29:20;;;;;;;36.97;23.58;;;25.20;46.40;;;;;;5068485;28;20032;-77